Terminal Aerodrome Forecast
Issued by NWS Albuquerque, NM

Home | Current Version | Previous Version | Text Only | Print | Product List | Glossary On
Versions: 1 2 3 4 5 6 7 8 9 10 11 12 13 14
000
FTUS45 KABQ 212300
TAFABQ
TAF
KABQ 212339Z 2200/2224 18011KT P6SM SCT110 BKN200
     FM220900 VRB04KT P6SM VCSH SCT060 BKN100
     FM221100 VRB05KT P6SM -SHRA BKN050 OVC090
     FM221700 18008KT P6SM SCT050 BKN090
     FM222300 19008KT P6SM VCTS SCT060CB BKN090=

USA.gov is the U.S. government's official web portal to all federal, state and local government web resources and services.